Terminal Aerodrome Forecast
Issued by NWS Binghamton, NY

Home | Current Version | Previous Version | Text Only | Print | Product List | Glossary On
Versions: 1 2 3 4 5 6 7 8 9 10 11 12 13 14 15 16 17 18 19 20
000
FTUS41 KBGM 261700
TAFBGM
TAF
KBGM 261727Z 2618/2718 24006KT P6SM BKN060
     FM270000 19005KT P6SM SCT060 OVC150
     FM270700 21005KT P6SM -SHRA OVC050
     FM271100 21005KT P6SM SCT025 OVC035
      TEMPO 2711/2714 OVC015
     FM271400 24006KT P6SM BKN035=

USA.gov is the U.S. government's official web portal to all federal, state and local government web resources and services.